createdAt,value
2023-05-21T00:00:13.355Z,99754.81
2023-05-21T00:03:16.360Z,99755.56
2023-05-21T00:06:21.137Z,99752.84
2023-05-21T00:09:24.008Z,99752.38
2023-05-21T00:12:26.809Z,99747.63
2023-05-21T00:15:29.637Z,99747.66
2023-05-21T00:18:34.288Z,99749.47
2023-05-21T00:21:39.535Z,99741.09
2023-05-21T00:24:42.380Z,99735.47
2023-05-21T00:27:45.143Z,99744.31
2023-05-21T00:30:47.878Z,99736.97
2023-05-21T00:33:50.776Z,99738.72
2023-05-21T00:36:55.643Z,99736.34
2023-05-21T00:39:58.556Z,99726.56
2023-05-21T00:43:01.323Z,99721.22
2023-05-21T00:46:04.064Z,99732.81
2023-05-21T00:49:06.881Z,99722.94
2023-05-21T00:52:11.662Z,99722.13
2023-05-21T00:55:14.422Z,99729.34
2023-05-21T00:58:18.326Z,99722.66
2023-05-21T01:01:21.189Z,99726.53
2023-05-21T01:04:24.113Z,99728.56
2023-05-21T01:07:28.240Z,99716.81
2023-05-21T01:10:31.529Z,99710.75
2023-05-21T01:13:37.950Z,99707.28
2023-05-21T01:16:42.266Z,99696.84
2023-05-21T01:19:45.580Z,99702.06
2023-05-21T01:22:52.635Z,99692.19
2023-05-21T01:25:55.389Z,99695.88
2023-05-21T01:28:58.040Z,99702.22
2023-05-21T01:32:04.074Z,99698.22
2023-05-21T01:35:09.306Z,99700.06
2023-05-21T01:38:17.558Z,99701.25
2023-05-21T01:41:21.082Z,99697.38
2023-05-21T01:44:25.400Z,99690.34
2023-05-21T01:47:31.300Z,99691.16
2023-05-21T01:50:35.303Z,99684.13
2023-05-21T01:53:40.838Z,99683.78
2023-05-21T01:56:43.640Z,99687.28
2023-05-21T01:59:47.852Z,99693.69
2023-05-21T02:02:50.950Z,99693.88
2023-05-21T02:05:55.725Z,99695.03
2023-05-21T02:08:59.965Z,99683.59
2023-05-21T02:12:02.746Z,99685.66
2023-05-21T02:15:06.101Z,99683.66
2023-05-21T02:18:09.630Z,99694.41
2023-05-21T02:21:12.520Z,99694.84
2023-05-21T02:24:16.836Z,99703.28
2023-05-21T02:27:19.606Z,99700.25
2023-05-21T02:30:22.428Z,99703.44
2023-05-21T02:33:26.139Z,99690.88
2023-05-21T02:36:28.880Z,99704.28
2023-05-21T02:39:33.030Z,99702.63
2023-05-21T02:42:36.614Z,99696.22
2023-05-21T02:45:39.507Z,99696.91
2023-05-21T02:48:42.402Z,99694.22
2023-05-21T02:51:45.168Z,99689.00
2023-05-21T02:54:49.317Z,99690.69
2023-05-21T02:57:52.082Z,99689.31
2023-05-21T03:00:54.878Z,99690.00
2023-05-21T03:03:57.664Z,99691.69
2023-05-21T03:07:02.203Z,99689.47
2023-05-21T03:10:06.852Z,99703.25
2023-05-21T03:13:09.925Z,99690.84
2023-05-21T03:16:12.953Z,99688.97
2023-05-21T03:19:16.464Z,99684.44
2023-05-21T03:22:20.093Z,99688.97
2023-05-21T03:25:25.350Z,99687.97
2023-05-21T03:28:28.193Z,99691.84
2023-05-21T03:31:31.001Z,99693.50
2023-05-21T03:34:35.676Z,99698.56
2023-05-21T03:37:38.462Z,99694.34
2023-05-21T03:40:42.557Z,99694.31
2023-05-21T03:43:45.701Z,99700.88
2023-05-21T03:46:48.443Z,99704.56
2023-05-21T03:49:51.480Z,99702.38
2023-05-21T03:52:54.253Z,99699.38
2023-05-21T03:55:58.386Z,99693.34
2023-05-21T03:59:01.337Z,99704.56
2023-05-21T04:02:04.219Z,99701.69
2023-05-21T04:05:07.558Z,99699.34
2023-05-21T04:08:10.391Z,99701.00
2023-05-21T04:11:14.422Z,99693.31
2023-05-21T04:14:17.405Z,99693.09
2023-05-21T04:17:21.188Z,99691.25
2023-05-21T04:20:24.032Z,99690.94
2023-05-21T04:23:26.837Z,99684.53
2023-05-21T04:26:34.376Z,99689.16
2023-05-21T04:29:37.834Z,99686.78
2023-05-21T04:32:40.619Z,99691.25
2023-05-21T04:35:44.646Z,99686.56
2023-05-21T04:38:48.790Z,99682.31
2023-05-21T04:41:54.925Z,99681.00
2023-05-21T04:44:59.559Z,99680.19
2023-05-21T04:48:03.032Z,99684.53
2023-05-21T04:51:06.961Z,99693.44
2023-05-21T04:54:09.732Z,99691.59
2023-05-21T04:57:13.857Z,99687.69
2023-05-21T05:00:17.522Z,99699.13
2023-05-21T05:03:20.342Z,99695.56
2023-05-21T05:06:25.820Z,99693.06
2023-05-21T05:09:30.222Z,99693.91
2023-05-21T05:12:34.369Z,99689.19
2023-05-21T05:15:37.387Z,99692.38
2023-05-21T05:18:40.275Z,99698.59
2023-05-21T05:21:43.024Z,99698.09
2023-05-21T05:24:45.818Z,99694.88
2023-05-21T05:27:49.962Z,99705.63
2023-05-21T05:30:52.772Z,99705.78
2023-05-21T05:33:59.440Z,99710.13
2023-05-21T05:37:03.027Z,99698.38
2023-05-21T05:40:06.352Z,99701.38
2023-05-21T05:43:10.466Z,99712.13
2023-05-21T05:46:13.214Z,99698.88
2023-05-21T05:49:16.037Z,99708.19
2023-05-21T05:52:18.775Z,99712.56
2023-05-21T05:55:22.126Z,99712.41
2023-05-21T05:58:26.416Z,99709.22
2023-05-21T06:01:29.288Z,99712.56
2023-05-21T06:04:32.075Z,99711.84
2023-05-21T06:07:34.803Z,99705.97
2023-05-21T06:10:37.557Z,99712.53
2023-05-21T06:13:41.675Z,99711.84
2023-05-21T06:16:44.419Z,99715.06
2023-05-21T06:19:47.130Z,99716.22
2023-05-21T06:22:49.882Z,99711.81
2023-05-21T06:25:52.596Z,99707.75
2023-05-21T06:28:56.759Z,99706.09
2023-05-21T06:31:59.469Z,99702.38
2023-05-21T06:35:02.272Z,99695.97
2023-05-21T06:38:05.042Z,99702.00
2023-05-21T06:41:07.759Z,99696.97
2023-05-21T06:44:11.762Z,99700.34
2023-05-21T06:47:14.457Z,99690.56
2023-05-21T06:50:17.435Z,99692.28
2023-05-21T06:53:20.137Z,99695.81
2023-05-21T06:56:22.970Z,99691.53
2023-05-21T06:59:27.101Z,99689.59
2023-05-21T07:02:30.084Z,99682.63
2023-05-21T07:05:32.922Z,99687.69
2023-05-21T07:08:35.707Z,99687.50
2023-05-21T07:11:38.962Z,99690.56
2023-05-21T07:14:43.041Z,99680.78
2023-05-21T07:17:45.965Z,99674.56
2023-05-21T07:20:48.794Z,99670.50
2023-05-21T07:23:51.546Z,99677.75
2023-05-21T07:26:54.432Z,99668.66
2023-05-21T07:29:58.607Z,99675.69
2023-05-21T07:33:01.424Z,99666.25
2023-05-21T07:36:04.252Z,99671.16
2023-05-21T07:39:06.919Z,99668.28
2023-05-21T07:42:09.643Z,99667.63
2023-05-21T07:45:13.804Z,99661.53
2023-05-21T07:48:16.580Z,99665.59
2023-05-21T07:51:19.465Z,99660.88
2023-05-21T07:54:22.294Z,99675.00
2023-05-21T07:57:25.032Z,99672.66
2023-05-21T08:00:29.186Z,99677.38
2023-05-21T08:03:32.159Z,99677.56
2023-05-21T08:06:35.090Z,99664.09
2023-05-21T08:09:37.971Z,99675.63
2023-05-21T08:12:40.885Z,99673.13
2023-05-21T08:15:44.996Z,99680.91
2023-05-21T08:18:47.767Z,99673.13
2023-05-21T08:21:52.819Z,99681.31
2023-05-21T08:24:55.952Z,99679.66
2023-05-21T08:27:58.707Z,99678.16
2023-05-21T08:31:03.126Z,99684.41
2023-05-21T08:34:05.837Z,99682.53
2023-05-21T08:37:08.611Z,99676.13
2023-05-21T08:40:12.465Z,99673.13
2023-05-21T08:43:16.526Z,99687.72
2023-05-21T08:46:22.333Z,99679.13
2023-05-21T08:49:27.527Z,99679.00
2023-05-21T08:52:30.327Z,99679.97
2023-05-21T08:55:33.777Z,99682.66
2023-05-21T08:58:37.552Z,99677.09
2023-05-21T09:01:43.688Z,99690.00
2023-05-21T09:04:49.247Z,99681.88
2023-05-21T09:07:56.790Z,99679.50
2023-05-21T09:10:59.579Z,99682.31
2023-05-21T09:14:02.472Z,99676.81
2023-05-21T09:17:06.681Z,99692.72
2023-05-21T09:20:12.173Z,99693.63
2023-05-21T09:23:18.280Z,99680.81
2023-05-21T09:26:22.580Z,99692.59
2023-05-21T09:29:26.169Z,99697.63
2023-05-21T09:32:30.303Z,99690.34
2023-05-21T09:35:36.220Z,99688.66
2023-05-21T09:38:40.316Z,99690.94
2023-05-21T09:41:43.356Z,99706.31
2023-05-21T09:44:46.077Z,99706.44
2023-05-21T09:47:50.593Z,99709.13
2023-05-21T09:50:53.418Z,99710.28
2023-05-21T09:53:58.010Z,99710.59
2023-05-21T09:57:01.556Z,99711.97
2023-05-21T10:00:06.562Z,99710.28
2023-05-21T10:03:11.060Z,99701.22
2023-05-21T10:06:15.654Z,99711.88
2023-05-21T10:09:20.969Z,99707.38
2023-05-21T10:12:24.619Z,99705.56
2023-05-21T10:15:29.298Z,99701.97
2023-05-21T10:18:34.840Z,99696.78
2023-05-21T10:21:40.330Z,99703.41
2023-05-21T10:24:44.033Z,99697.13
2023-05-21T10:27:47.182Z,99699.59
2023-05-21T10:30:50.049Z,99703.38
2023-05-21T10:33:54.392Z,99701.31
2023-05-21T10:36:58.442Z,99702.03
2023-05-21T10:40:01.518Z,99696.41
2023-05-21T10:43:23.772Z,99695.88
2023-05-21T10:46:37.677Z,99692.38
2023-05-21T10:49:49.218Z,99682.63
2023-05-21T10:52:57.262Z,99693.13
2023-05-21T10:56:06.734Z,99689.28
2023-05-21T10:59:15.331Z,99694.63
2023-05-21T11:02:19.824Z,99689.97
2023-05-21T11:05:39.280Z,99683.34
2023-05-21T11:08:48.613Z,99692.13
2023-05-21T11:11:51.613Z,99683.41
2023-05-21T11:14:57.760Z,99683.88
2023-05-21T11:18:00.615Z,99682.03
2023-05-21T11:21:06.797Z,99694.19
2023-05-21T11:24:11.133Z,99689.53
2023-05-21T11:27:14.012Z,99681.22
2023-05-21T11:30:17.460Z,99678.66
2023-05-21T11:33:20.389Z,99690.41
2023-05-21T11:36:24.500Z,99687.41
2023-05-21T11:39:27.419Z,99688.19
2023-05-21T11:42:33.968Z,99690.03
2023-05-21T11:45:41.076Z,99680.88
2023-05-21T11:48:45.467Z,99686.16
2023-05-21T11:51:49.850Z,99685.00
2023-05-21T11:54:55.304Z,99686.38
2023-05-21T11:57:59.544Z,99688.94
2023-05-21T12:01:02.270Z,99677.22
2023-05-21T12:04:05.424Z,99682.66
2023-05-21T12:07:10.130Z,99679.75
2023-05-21T12:10:13.566Z,99675.59
2023-05-21T12:13:16.292Z,99677.84
2023-05-21T12:16:19.118Z,99677.56
2023-05-21T12:19:22.141Z,99667.84
2023-05-21T12:22:28.118Z,99665.00
2023-05-21T12:25:32.109Z,99654.53
2023-05-21T12:28:34.915Z,99660.00
2023-05-21T12:31:48.126Z,99660.09
2023-05-21T12:34:51.478Z,99645.59
2023-05-21T12:37:55.859Z,99641.09
2023-05-21T12:41:04.032Z,99645.06
2023-05-21T12:44:08.805Z,99639.47
2023-05-21T12:47:11.867Z,99641.31
2023-05-21T12:50:14.678Z,99636.94
2023-05-21T12:53:18.709Z,99621.25
2023-05-21T12:56:21.819Z,99622.56
2023-05-21T12:59:24.582Z,99624.16
2023-05-21T13:02:28.091Z,99626.56
2023-05-21T13:05:32.134Z,99627.00
2023-05-21T13:08:36.355Z,99623.97
2023-05-21T13:11:39.289Z,99625.09
2023-05-21T13:14:42.021Z,99623.69
2023-05-21T13:17:44.867Z,99624.13
2023-05-21T13:20:47.716Z,99616.31
2023-05-21T13:23:51.824Z,99620.84
2023-05-21T13:26:54.602Z,99618.34
2023-05-21T13:29:57.399Z,99608.53
2023-05-21T13:33:00.398Z,99604.31
2023-05-21T13:36:05.512Z,99596.44
2023-05-21T13:39:09.652Z,99594.47
2023-05-21T13:42:12.457Z,99595.03
2023-05-21T13:45:16.295Z,99601.69
2023-05-21T13:48:21.720Z,99582.53
2023-05-21T13:51:38.042Z,99578.88
2023-05-21T13:54:43.352Z,99585.75
2023-05-21T13:57:46.941Z,99586.25
2023-05-21T14:00:49.767Z,99586.25
2023-05-21T14:03:52.508Z,99579.06
2023-05-21T14:06:55.594Z,99581.63
2023-05-21T14:09:59.777Z,99575.19
2023-05-21T14:13:11.900Z,99582.31
2023-05-21T14:16:23.102Z,99576.97
2023-05-21T14:19:26.004Z,99581.91
2023-05-21T14:22:28.734Z,99586.19
2023-05-21T14:25:32.830Z,99579.91
2023-05-21T14:28:36.624Z,99586.88
2023-05-21T14:31:39.900Z,99591.41
2023-05-21T14:34:42.677Z,99589.75
2023-05-21T14:37:45.374Z,99592.59
2023-05-21T14:40:49.446Z,99600.31
2023-05-21T14:43:52.139Z,99595.97
2023-05-21T14:46:54.860Z,99600.47
2023-05-21T14:49:57.555Z,99597.47
2023-05-21T14:53:00.317Z,99607.03
2023-05-21T14:56:04.520Z,99600.97
2023-05-21T14:59:07.220Z,99601.69
2023-05-21T15:02:09.925Z,99604.41
2023-05-21T15:05:12.761Z,99603.94
2023-05-21T15:08:15.539Z,99599.28
2023-05-21T15:11:19.623Z,99596.84
2023-05-21T15:14:22.400Z,99607.66
2023-05-21T15:17:25.140Z,99610.97
2023-05-21T15:20:27.861Z,99605.41
2023-05-21T15:23:30.580Z,99604.66
2023-05-21T15:26:34.705Z,99602.75
2023-05-21T15:29:37.509Z,99600.44
2023-05-21T15:32:40.681Z,99595.19
2023-05-21T15:35:43.685Z,99588.06
2023-05-21T15:38:46.938Z,99593.94
2023-05-21T15:41:52.160Z,99594.88
2023-05-21T15:44:54.881Z,99597.34
2023-05-21T15:47:57.675Z,99603.22
2023-05-21T15:51:00.465Z,99612.50
2023-05-21T15:54:05.985Z,99608.16
2023-05-21T15:57:10.037Z,99610.19
2023-05-21T16:00:13.606Z,99610.13
2023-05-21T16:03:16.594Z,99627.97
2023-05-21T16:06:19.895Z,99622.22
2023-05-21T16:09:22.569Z,99623.22
2023-05-21T16:12:27.398Z,99625.75
2023-05-21T16:15:32.477Z,99616.56
2023-05-21T16:18:35.253Z,99617.09
2023-05-21T16:21:37.949Z,99614.50
2023-05-21T16:24:40.676Z,99619.16
2023-05-21T16:27:44.797Z,99616.81
2023-05-21T16:30:47.661Z,99621.84
2023-05-21T16:33:50.555Z,99610.84
2023-05-21T16:36:53.406Z,99616.66
2023-05-21T16:39:56.124Z,99612.28
2023-05-21T16:43:02.045Z,99615.19
2023-05-21T16:46:05.141Z,99601.06
2023-05-21T16:49:07.898Z,99612.28
2023-05-21T16:52:10.845Z,99606.19
2023-05-21T16:55:17.256Z,99597.47
2023-05-21T16:58:22.402Z,99614.69
2023-05-21T17:01:25.725Z,99608.25
2023-05-21T17:04:28.748Z,99602.09
2023-05-21T17:07:32.547Z,99599.47
2023-05-21T17:10:35.788Z,99598.84
2023-05-21T17:13:41.171Z,99601.16
2023-05-21T17:16:44.296Z,99606.34
2023-05-21T17:19:47.078Z,99600.28
2023-05-21T17:22:49.860Z,99601.06
2023-05-21T17:25:53.127Z,99594.78
2023-05-21T17:28:57.342Z,99611.34
2023-05-21T17:32:00.352Z,99609.00
2023-05-21T17:35:03.250Z,99606.31
2023-05-21T17:38:05.976Z,99601.97
2023-05-21T17:41:08.748Z,99607.84
2023-05-21T17:44:13.677Z,99602.97
2023-05-21T17:47:16.417Z,99609.75
2023-05-21T17:50:19.253Z,99608.41
2023-05-21T17:53:22.829Z,99614.75
2023-05-21T17:56:26.657Z,99616.34
2023-05-21T17:59:30.866Z,99608.31
2023-05-21T18:02:33.667Z,99601.59
2023-05-21T18:05:36.880Z,99597.63
2023-05-21T18:08:39.862Z,99599.03
2023-05-21T18:11:43.477Z,99596.75
2023-05-21T18:14:47.616Z,99598.16
2023-05-21T18:17:50.421Z,99601.16
2023-05-21T18:20:54.068Z,99601.25
2023-05-21T18:23:56.787Z,99595.72
2023-05-21T18:26:59.648Z,99592.03
2023-05-21T18:30:06.400Z,99598.19
2023-05-21T18:33:11.154Z,99593.13
2023-05-21T18:36:13.959Z,99593.84
2023-05-21T18:39:16.682Z,99586.81
2023-05-21T18:42:27.013Z,99583.47
2023-05-21T18:45:31.267Z,99579.94
2023-05-21T18:48:34.113Z,99573.56
2023-05-21T18:51:36.936Z,99574.72
2023-05-21T18:54:39.776Z,99566.81
2023-05-21T18:57:42.526Z,99562.59
2023-05-21T19:00:46.872Z,99561.25
2023-05-21T19:03:49.634Z,99553.91
2023-05-21T19:06:52.371Z,99555.53
2023-05-21T19:09:56.080Z,99545.91
2023-05-21T19:12:58.810Z,99536.59
2023-05-21T19:16:03.274Z,99529.78
2023-05-21T19:19:06.081Z,99532.97
2023-05-21T19:22:08.955Z,99536.50
2023-05-21T19:25:11.977Z,99538.00
2023-05-21T19:28:14.765Z,99533.75
2023-05-21T19:31:18.943Z,99533.88
2023-05-21T19:34:22.949Z,99539.16
2023-05-21T19:37:26.199Z,99535.03
2023-05-21T19:40:29.036Z,99535.91
2023-05-21T19:43:32.801Z,99529.06
2023-05-21T19:46:37.072Z,99525.72
2023-05-21T19:49:40.147Z,99524.47
2023-05-21T19:52:42.968Z,99512.28
2023-05-21T19:55:46.818Z,99525.06
2023-05-21T19:58:49.644Z,99512.19
2023-05-21T20:01:53.803Z,99514.81
2023-05-21T20:04:57.859Z,99504.38
2023-05-21T20:08:00.634Z,99520.69
2023-05-21T20:11:04.588Z,99523.06
2023-05-21T20:14:07.373Z,99522.44
2023-05-21T20:17:11.935Z,99532.91
2023-05-21T20:20:14.835Z,99522.06
2023-05-21T20:23:17.779Z,99528.09
2023-05-21T20:26:21.839Z,99514.38
2023-05-21T20:29:24.606Z,99513.22
2023-05-21T20:32:28.681Z,99518.88
2023-05-21T20:35:31.568Z,99513.78
2023-05-21T20:38:36.947Z,99506.13
2023-05-21T20:41:39.689Z,99514.53
2023-05-21T20:44:45.105Z,99514.47
2023-05-21T20:47:50.174Z,99504.28
2023-05-21T20:50:53.037Z,99502.47
2023-05-21T20:53:55.768Z,99505.91
2023-05-21T20:57:00.007Z,99503.94
2023-05-21T21:00:02.751Z,99506.72
2023-05-21T21:03:10.249Z,99502.94
2023-05-21T21:06:13.150Z,99501.38
2023-05-21T21:09:17.651Z,99495.22
2023-05-21T21:12:25.150Z,99495.44
2023-05-21T21:15:29.047Z,99488.41
2023-05-21T21:18:33.121Z,99484.81
2023-05-21T21:21:36.024Z,99483.97
2023-05-21T21:24:38.784Z,99482.75
2023-05-21T21:27:42.515Z,99476.00
2023-05-21T21:30:45.864Z,99477.69
2023-05-21T21:33:50.110Z,99487.69
2023-05-21T21:36:52.859Z,99479.84
2023-05-21T21:39:55.763Z,99491.09
2023-05-21T21:42:58.547Z,99496.31
2023-05-21T21:46:01.460Z,99497.44
2023-05-21T21:49:05.742Z,99502.13
2023-05-21T21:52:08.582Z,99497.97
2023-05-21T21:55:12.619Z,99494.84
2023-05-21T21:58:15.383Z,99485.78
2023-05-21T22:01:18.168Z,99473.69
2023-05-21T22:04:23.350Z,99478.97
2023-05-21T22:07:26.171Z,99490.38
2023-05-21T22:10:28.983Z,99493.72
2023-05-21T22:13:31.702Z,99492.78
2023-05-21T22:16:34.465Z,99487.97
2023-05-21T22:19:38.576Z,99487.59
2023-05-21T22:22:41.320Z,99504.19
2023-05-21T22:25:44.119Z,99502.78
2023-05-21T22:28:46.867Z,99503.88
2023-05-21T22:31:50.643Z,99504.41
2023-05-21T22:34:54.748Z,99495.28
2023-05-21T22:37:58.096Z,99507.34
2023-05-21T22:41:01.853Z,99504.59
2023-05-21T22:44:04.684Z,99500.13
2023-05-21T22:47:09.475Z,99496.22
2023-05-21T22:50:13.944Z,99497.69
2023-05-21T22:53:17.148Z,99490.09
2023-05-21T22:56:19.884Z,99486.09
2023-05-21T22:59:22.674Z,99474.88
2023-05-21T23:02:25.541Z,99476.63
2023-05-21T23:05:29.743Z,99470.94
2023-05-21T23:08:32.527Z,99474.28
2023-05-21T23:11:35.493Z,99468.28
2023-05-21T23:14:38.201Z,99466.59
2023-05-21T23:17:41.153Z,99473.31
2023-05-21T23:20:45.560Z,99464.44
2023-05-21T23:23:48.350Z,99467.97
2023-05-21T23:26:51.104Z,99460.59
2023-05-21T23:29:53.916Z,99469.63
2023-05-21T23:32:57.010Z,99466.28
2023-05-21T23:36:01.333Z,99467.63
2023-05-21T23:39:04.382Z,99466.63
2023-05-21T23:42:07.395Z,99469.47
2023-05-21T23:45:10.411Z,99460.75
2023-05-21T23:48:13.242Z,99459.09
2023-05-21T23:51:19.275Z,99461.59
2023-05-21T23:54:22.042Z,99453.91
2023-05-21T23:57:24.787Z,99448.88
